sensor_id;sensor_type;location;lat;lon;timestamp;pressure;altitude;pressure_sealevel;temperature;humidity
54666;BME280;40566;50.006;36.180;2023-05-31T00:04:25;99509.66;;;14.35;65.92
54666;BME280;40566;50.006;36.180;2023-05-31T00:09:26;99509.06;;;14.30;65.82
54666;BME280;40566;50.006;36.180;2023-05-31T00:14:26;99509.06;;;14.30;65.87
54666;BME280;40566;50.006;36.180;2023-05-31T00:19:27;99515.16;;;14.29;66.12
54666;BME280;40566;50.006;36.180;2023-05-31T00:24:27;99510.94;;;14.26;65.92
54666;BME280;40566;50.006;36.180;2023-05-31T00:29:28;99505.81;;;14.25;66.26
54666;BME280;40566;50.006;36.180;2023-05-31T00:34:29;99510.31;;;14.21;66.11
54666;BME280;40566;50.006;36.180;2023-05-31T00:39:30;99522.59;;;14.18;66.29
54666;BME280;40566;50.006;36.180;2023-05-31T00:44:30;99520.38;;;14.10;66.28
54666;BME280;40566;50.006;36.180;2023-05-31T00:49:31;99527.47;;;14.06;66.49
54666;BME280;40566;50.006;36.180;2023-05-31T00:54:32;99518.19;;;14.01;66.74
54666;BME280;40566;50.006;36.180;2023-05-31T00:59:32;99514.81;;;13.99;66.56
54666;BME280;40566;50.006;36.180;2023-05-31T01:04:33;99526.22;;;13.96;66.77
54666;BME280;40566;50.006;36.180;2023-05-31T01:09:34;99521.03;;;13.96;66.89
54666;BME280;40566;50.006;36.180;2023-05-31T01:20:09;99534.97;;;13.94;67.10
54666;BME280;40566;50.006;36.180;2023-05-31T01:30:53;99527.06;;;13.97;66.97
54666;BME280;40566;50.006;36.180;2023-05-31T01:35:54;99540.94;;;13.96;67.26
54666;BME280;40566;50.006;36.180;2023-05-31T01:40:55;99532.25;;;13.97;67.29
54666;BME280;40566;50.006;36.180;2023-05-31T01:45:57;99527.94;;;13.96;67.59
54666;BME280;40566;50.006;36.180;2023-05-31T01:50:59;99536.69;;;13.95;67.67
54666;BME280;40566;50.006;36.180;2023-05-31T01:56:02;99532.47;;;13.92;67.61
54666;BME280;40566;50.006;36.180;2023-05-31T02:01:03;99548.25;;;13.87;67.54
54666;BME280;40566;50.006;36.180;2023-05-31T02:06:04;99540.63;;;13.84;67.67
54666;BME280;40566;50.006;36.180;2023-05-31T02:11:05;99543.22;;;13.84;67.73
54666;BME280;40566;50.006;36.180;2023-05-31T02:16:06;99555.28;;;13.85;67.79
54666;BME280;40566;50.006;36.180;2023-05-31T02:21:07;99562.25;;;13.85;67.74
54666;BME280;40566;50.006;36.180;2023-05-31T02:26:07;99569.34;;;13.81;67.83
54666;BME280;40566;50.006;36.180;2023-05-31T02:31:09;99570.88;;;13.85;67.94
54666;BME280;40566;50.006;36.180;2023-05-31T02:36:10;99577.84;;;13.85;68.04
54666;BME280;40566;50.006;36.180;2023-05-31T02:41:11;99584.53;;;13.91;68.18
54666;BME280;40566;50.006;36.180;2023-05-31T02:46:12;99582.72;;;13.93;68.02
54666;BME280;40566;50.006;36.180;2023-05-31T02:51:12;99582.56;;;13.96;68.35
54666;BME280;40566;50.006;36.180;2023-05-31T02:56:13;99578.91;;;14.00;68.21
54666;BME280;40566;50.006;36.180;2023-05-31T03:01:13;99590.88;;;14.04;68.25
54666;BME280;40566;50.006;36.180;2023-05-31T03:06:14;99588.84;;;14.11;68.22
54666;BME280;40566;50.006;36.180;2023-05-31T03:11:17;99589.69;;;14.11;68.56
54666;BME280;40566;50.006;36.180;2023-05-31T03:16:17;99596.31;;;14.18;68.37
54666;BME280;40566;50.006;36.180;2023-05-31T03:21:20;99595.97;;;14.26;68.40
54666;BME280;40566;50.006;36.180;2023-05-31T03:26:21;99589.56;;;14.33;68.63
54666;BME280;40566;50.006;36.180;2023-05-31T03:31:21;99585.91;;;14.37;68.54
54666;BME280;40566;50.006;36.180;2023-05-31T03:36:22;99594.13;;;14.47;68.52
54666;BME280;40566;50.006;36.180;2023-05-31T03:41:22;99596.53;;;14.52;68.79
54666;BME280;40566;50.006;36.180;2023-05-31T03:46:24;99595.91;;;14.65;68.68
54666;BME280;40566;50.006;36.180;2023-05-31T03:51:25;99599.19;;;14.69;68.13
54666;BME280;40566;50.006;36.180;2023-05-31T03:56:25;99606.50;;;14.80;68.28
54666;BME280;40566;50.006;36.180;2023-05-31T04:01:26;99603.47;;;14.89;67.96
54666;BME280;40566;50.006;36.180;2023-05-31T04:06:27;99603.97;;;14.97;67.77
54666;BME280;40566;50.006;36.180;2023-05-31T04:11:29;99600.88;;;15.06;67.82
54666;BME280;40566;50.006;36.180;2023-05-31T04:16:29;99607.44;;;15.15;67.64
54666;BME280;40566;50.006;36.180;2023-05-31T04:21:30;99612.84;;;15.28;67.45
54666;BME280;40566;50.006;36.180;2023-05-31T04:26:33;99616.56;;;15.41;67.40
54666;BME280;40566;50.006;36.180;2023-05-31T04:31:33;99622.28;;;15.48;67.16
54666;BME280;40566;50.006;36.180;2023-05-31T04:36:37;99605.44;;;15.55;67.25
54666;BME280;40566;50.006;36.180;2023-05-31T04:41:39;99614.25;;;15.70;66.83
54666;BME280;40566;50.006;36.180;2023-05-31T04:46:40;99609.97;;;15.86;66.43
54666;BME280;40566;50.006;36.180;2023-05-31T04:51:43;99602.16;;;16.02;66.25
54666;BME280;40566;50.006;36.180;2023-05-31T04:56:43;99616.19;;;16.17;66.08
54666;BME280;40566;50.006;36.180;2023-05-31T05:01:44;99610.31;;;16.30;65.69
54666;BME280;40566;50.006;36.180;2023-05-31T05:06:45;99609.72;;;16.40;65.22
54666;BME280;40566;50.006;36.180;2023-05-31T05:11:46;99605.59;;;16.52;64.98
54666;BME280;40566;50.006;36.180;2023-05-31T05:16:47;99612.44;;;16.71;64.67
54666;BME280;40566;50.006;36.180;2023-05-31T05:21:47;99610.69;;;16.87;64.33
54666;BME280;40566;50.006;36.180;2023-05-31T05:26:48;99609.22;;;16.97;63.89
54666;BME280;40566;50.006;36.180;2023-05-31T05:31:49;99614.44;;;17.13;63.44
54666;BME280;40566;50.006;36.180;2023-05-31T05:36:49;99599.53;;;17.30;63.33
54666;BME280;40566;50.006;36.180;2023-05-31T05:41:52;99601.19;;;17.47;62.58
54666;BME280;40566;50.006;36.180;2023-05-31T05:46:53;99600.84;;;17.67;61.89
54666;BME280;40566;50.006;36.180;2023-05-31T05:52:12;99601.66;;;17.83;61.21
54666;BME280;40566;50.006;36.180;2023-05-31T05:57:12;99602.41;;;18.00;60.51
54666;BME280;40566;50.006;36.180;2023-05-31T06:02:13;99604.25;;;18.12;60.16
54666;BME280;40566;50.006;36.180;2023-05-31T06:07:13;99604.16;;;18.28;59.89
54666;BME280;40566;50.006;36.180;2023-05-31T06:12:14;99599.84;;;18.41;59.35
54666;BME280;40566;50.006;36.180;2023-05-31T06:17:15;99598.97;;;18.55;59.30
54666;BME280;40566;50.006;36.180;2023-05-31T06:22:15;99595.28;;;18.72;58.88
54666;BME280;40566;50.006;36.180;2023-05-31T06:27:16;99593.47;;;18.87;58.79
54666;BME280;40566;50.006;36.180;2023-05-31T06:32:17;99596.78;;;19.03;58.44
54666;BME280;40566;50.006;36.180;2023-05-31T06:37:17;99591.88;;;19.12;57.93
54666;BME280;40566;50.006;36.180;2023-05-31T06:42:18;99595.06;;;19.30;57.38
54666;BME280;40566;50.006;36.180;2023-05-31T06:47:19;99585.31;;;19.45;56.80
54666;BME280;40566;50.006;36.180;2023-05-31T06:52:20;99583.25;;;19.62;56.23
54666;BME280;40566;50.006;36.180;2023-05-31T06:57:20;99590.00;;;19.79;55.40
54666;BME280;40566;50.006;36.180;2023-05-31T07:02:21;99588.31;;;19.91;55.19
54666;BME280;40566;50.006;36.180;2023-05-31T07:07:21;99579.69;;;20.02;54.50
54666;BME280;40566;50.006;36.180;2023-05-31T07:12:22;99586.72;;;20.14;53.87
54666;BME280;40566;50.006;36.180;2023-05-31T07:17:22;99588.47;;;20.27;53.37
54666;BME280;40566;50.006;36.180;2023-05-31T07:22:23;99584.25;;;20.37;52.75
54666;BME280;40566;50.006;36.180;2023-05-31T07:27:23;99580.84;;;20.48;52.24
54666;BME280;40566;50.006;36.180;2023-05-31T07:32:24;99572.50;;;20.67;51.60
54666;BME280;40566;50.006;36.180;2023-05-31T07:37:26;99569.56;;;20.95;51.23
54666;BME280;40566;50.006;36.180;2023-05-31T07:42:27;99578.66;;;21.38;50.18
54666;BME280;40566;50.006;36.180;2023-05-31T07:47:29;99568.06;;;21.62;49.39
54666;BME280;40566;50.006;36.180;2023-05-31T07:52:30;99576.25;;;21.70;49.00
54666;BME280;40566;50.006;36.180;2023-05-31T07:57:30;99576.13;;;21.83;48.81
54666;BME280;40566;50.006;36.180;2023-05-31T08:02:31;99576.97;;;21.72;49.32
54666;BME280;40566;50.006;36.180;2023-05-31T08:07:31;99575.31;;;21.94;48.12
54666;BME280;40566;50.006;36.180;2023-05-31T08:12:33;99583.66;;;21.65;48.74
54666;BME280;40566;50.006;36.180;2023-05-31T08:17:34;99576.72;;;21.87;48.35
54666;BME280;40566;50.006;36.180;2023-05-31T08:22:35;99574.19;;;22.19;47.49
54666;BME280;40566;50.006;36.180;2023-05-31T08:27:35;99566.41;;;22.40;45.74
54666;BME280;40566;50.006;36.180;2023-05-31T08:32:37;99568.06;;;22.52;44.84
54666;BME280;40566;50.006;36.180;2023-05-31T08:37:38;99570.72;;;22.18;44.77
54666;BME280;40566;50.006;36.180;2023-05-31T08:42:53;99562.97;;;21.94;44.52
54666;BME280;40566;50.006;36.180;2023-05-31T08:48:08;99562.22;;;22.15;43.30
54666;BME280;40566;50.006;36.180;2023-05-31T08:53:11;99561.75;;;22.32;43.04
54666;BME280;40566;50.006;36.180;2023-05-31T08:58:13;99564.34;;;22.55;42.27
54666;BME280;40566;50.006;36.180;2023-05-31T09:03:14;99570.72;;;22.85;41.74
54666;BME280;40566;50.006;36.180;2023-05-31T09:08:15;99570.19;;;23.02;40.74
54666;BME280;40566;50.006;36.180;2023-05-31T09:13:15;99566.03;;;22.88;40.68
54666;BME280;40566;50.006;36.180;2023-05-31T09:18:19;99551.63;;;23.04;40.46
54666;BME280;40566;50.006;36.180;2023-05-31T09:23:20;99560.81;;;22.77;40.27
54666;BME280;40566;50.006;36.180;2023-05-31T09:28:21;99548.16;;;23.03;39.93
54666;BME280;40566;50.006;36.180;2023-05-31T09:33:22;99566.88;;;23.21;39.72
54666;BME280;40566;50.006;36.180;2023-05-31T09:38:34;99550.97;;;22.79;40.00
54666;BME280;40566;50.006;36.180;2023-05-31T09:43:39;99553.25;;;22.72;40.46
54666;BME280;40566;50.006;36.180;2023-05-31T09:48:39;99552.59;;;22.91;39.80
54666;BME280;40566;50.006;36.180;2023-05-31T09:53:42;99549.16;;;23.12;39.03
54666;BME280;40566;50.006;36.180;2023-05-31T09:58:43;99552.66;;;23.33;38.99
54666;BME280;40566;50.006;36.180;2023-05-31T10:03:44;99533.69;;;23.70;38.39
54666;BME280;40566;50.006;36.180;2023-05-31T10:08:45;99531.84;;;23.92;37.78
54666;BME280;40566;50.006;36.180;2023-05-31T10:13:52;99526.69;;;23.90;37.81
54666;BME280;40566;50.006;36.180;2023-05-31T10:18:58;99534.69;;;24.10;37.30
54666;BME280;40566;50.006;36.180;2023-05-31T10:24:04;99531.00;;;23.82;37.31
54666;BME280;40566;50.006;36.180;2023-05-31T10:29:14;99528.19;;;23.83;37.44
54666;BME280;40566;50.006;36.180;2023-05-31T10:34:25;99521.53;;;23.89;37.82
54666;BME280;40566;50.006;36.180;2023-05-31T10:39:29;99528.47;;;23.80;37.69
54666;BME280;40566;50.006;36.180;2023-05-31T10:44:40;99519.44;;;23.62;38.39
54666;BME280;40566;50.006;36.180;2023-05-31T10:49:43;99516.63;;;24.25;36.85
54666;BME280;40566;50.006;36.180;2023-05-31T10:54:45;99517.16;;;24.69;36.45
54666;BME280;40566;50.006;36.180;2023-05-31T10:59:47;99521.34;;;24.11;36.95
54666;BME280;40566;50.006;36.180;2023-05-31T11:04:47;99524.53;;;23.74;37.42
54666;BME280;40566;50.006;36.180;2023-05-31T11:09:57;99506.13;;;23.94;37.26
54666;BME280;40566;50.006;36.180;2023-05-31T11:15:00;99497.28;;;24.14;36.88
54666;BME280;40566;50.006;36.180;2023-05-31T11:20:02;99492.31;;;24.31;36.97
54666;BME280;40566;50.006;36.180;2023-05-31T11:25:07;99485.38;;;24.49;36.90
54666;BME280;40566;50.006;36.180;2023-05-31T11:30:09;99497.66;;;24.60;36.15
54666;BME280;40566;50.006;36.180;2023-05-31T11:35:13;99497.78;;;24.78;36.01
54666;BME280;40566;50.006;36.180;2023-05-31T11:40:15;99489.25;;;25.04;35.89
54666;BME280;40566;50.006;36.180;2023-05-31T11:45:16;99504.19;;;25.24;36.18
54666;BME280;40566;50.006;36.180;2023-05-31T11:50:23;99514.78;;;24.76;36.32
54666;BME280;40566;50.006;36.180;2023-05-31T11:55:32;99503.84;;;24.20;37.48
54666;BME280;40566;50.006;36.180;2023-05-31T12:00:33;99515.47;;;23.98;38.04
54666;BME280;40566;50.006;36.180;2023-05-31T12:05:35;99516.06;;;24.11;37.46
54666;BME280;40566;50.006;36.180;2023-05-31T12:10:35;99504.88;;;24.68;36.78
54666;BME280;40566;50.006;36.180;2023-05-31T12:15:36;99506.81;;;25.05;36.54
54666;BME280;40566;50.006;36.180;2023-05-31T12:20:36;99500.72;;;24.75;37.04
54666;BME280;40566;50.006;36.180;2023-05-31T12:25:52;99497.50;;;24.81;36.84
54666;BME280;40566;50.006;36.180;2023-05-31T12:30:52;99489.31;;;24.74;36.50
54666;BME280;40566;50.006;36.180;2023-05-31T12:35:53;99481.63;;;24.71;36.83
54666;BME280;40566;50.006;36.180;2023-05-31T12:40:54;99480.69;;;24.63;36.56
54666;BME280;40566;50.006;36.180;2023-05-31T12:45:54;99476.03;;;24.26;36.91
54666;BME280;40566;50.006;36.180;2023-05-31T12:50:57;99467.97;;;24.37;36.77
54666;BME280;40566;50.006;36.180;2023-05-31T12:55:57;99470.19;;;24.32;36.32
54666;BME280;40566;50.006;36.180;2023-05-31T13:00:58;99469.44;;;24.01;37.20
54666;BME280;40566;50.006;36.180;2023-05-31T13:05:59;99470.00;;;23.73;37.56
54666;BME280;40566;50.006;36.180;2023-05-31T13:10:59;99473.56;;;23.53;37.70
54666;BME280;40566;50.006;36.180;2023-05-31T13:16:00;99468.28;;;23.53;37.66
54666;BME280;40566;50.006;36.180;2023-05-31T13:21:01;99476.84;;;23.45;38.02
54666;BME280;40566;50.006;36.180;2023-05-31T13:26:01;99485.13;;;23.31;38.10
54666;BME280;40566;50.006;36.180;2023-05-31T13:31:03;99478.38;;;23.17;38.16
54666;BME280;40566;50.006;36.180;2023-05-31T13:36:04;99477.94;;;23.12;37.97
54666;BME280;40566;50.006;36.180;2023-05-31T13:41:05;99492.47;;;23.06;38.26
54666;BME280;40566;50.006;36.180;2023-05-31T13:46:05;99489.59;;;22.98;38.15
54666;BME280;40566;50.006;36.180;2023-05-31T13:51:11;99502.22;;;22.94;38.62
54666;BME280;40566;50.006;36.180;2023-05-31T13:56:12;99496.09;;;22.94;38.88
54666;BME280;40566;50.006;36.180;2023-05-31T14:01:13;99493.03;;;22.89;39.02
54666;BME280;40566;50.006;36.180;2023-05-31T14:06:13;99493.41;;;22.84;38.93
54666;BME280;40566;50.006;36.180;2023-05-31T14:11:14;99500.72;;;22.81;38.63
54666;BME280;40566;50.006;36.180;2023-05-31T14:16:14;99494.88;;;22.77;38.81
54666;BME280;40566;50.006;36.180;2023-05-31T14:21:15;99493.47;;;22.73;39.09
54666;BME280;40566;50.006;36.180;2023-05-31T14:26:16;99494.66;;;22.69;39.24
54666;BME280;40566;50.006;36.180;2023-05-31T14:31:16;99497.09;;;22.61;39.38
54666;BME280;40566;50.006;36.180;2023-05-31T14:36:19;99482.91;;;22.73;39.27
54666;BME280;40566;50.006;36.180;2023-05-31T14:41:20;99486.63;;;23.03;38.87
54666;BME280;40566;50.006;36.180;2023-05-31T14:46:21;99484.78;;;23.24;38.57
54666;BME280;40566;50.006;36.180;2023-05-31T14:51:21;99489.38;;;23.22;38.70
54666;BME280;40566;50.006;36.180;2023-05-31T14:56:22;99485.06;;;23.21;38.64
54666;BME280;40566;50.006;36.180;2023-05-31T15:01:22;99489.19;;;23.14;38.96
54666;BME280;40566;50.006;36.180;2023-05-31T15:06:23;99488.22;;;23.15;39.03
54666;BME280;40566;50.006;36.180;2023-05-31T15:11:24;99488.94;;;23.17;39.05
54666;BME280;40566;50.006;36.180;2023-05-31T15:16:25;99494.28;;;23.06;38.99
54666;BME280;40566;50.006;36.180;2023-05-31T15:21:26;99504.94;;;22.83;39.28
54666;BME280;40566;50.006;36.180;2023-05-31T15:26:27;99497.06;;;22.72;39.00
54666;BME280;40566;50.006;36.180;2023-05-31T15:31:27;99501.66;;;22.58;39.18
54666;BME280;40566;50.006;36.180;2023-05-31T15:36:28;99508.66;;;22.48;39.23
54666;BME280;40566;50.006;36.180;2023-05-31T15:41:29;99512.38;;;22.46;39.08
54666;BME280;40566;50.006;36.180;2023-05-31T15:46:31;99518.38;;;22.36;39.02
54666;BME280;40566;50.006;36.180;2023-05-31T15:51:32;99514.44;;;22.31;39.07
54666;BME280;40566;50.006;36.180;2023-05-31T15:56:32;99519.56;;;22.21;39.20
54666;BME280;40566;50.006;36.180;2023-05-31T16:01:33;99537.78;;;22.13;39.31
54666;BME280;40566;50.006;36.180;2023-05-31T16:06:33;99543.06;;;22.02;39.45
54666;BME280;40566;50.006;36.180;2023-05-31T16:11:34;99550.13;;;21.90;39.66
54666;BME280;40566;50.006;36.180;2023-05-31T16:16:35;99548.34;;;21.79;39.84
54666;BME280;40566;50.006;36.180;2023-05-31T16:21:39;99549.06;;;21.70;39.74
54666;BME280;40566;50.006;36.180;2023-05-31T16:26:40;99550.72;;;21.59;39.97
54666;BME280;40566;50.006;36.180;2023-05-31T16:31:40;99556.69;;;21.50;40.13
54666;BME280;40566;50.006;36.180;2023-05-31T16:36:41;99566.09;;;21.42;40.15
54666;BME280;40566;50.006;36.180;2023-05-31T16:41:41;99567.75;;;21.31;40.36
54666;BME280;40566;50.006;36.180;2023-05-31T16:46:42;99570.34;;;21.20;40.79
54666;BME280;40566;50.006;36.180;2023-05-31T16:51:43;99579.88;;;21.10;41.04
54666;BME280;40566;50.006;36.180;2023-05-31T16:56:43;99581.75;;;20.96;41.09
54666;BME280;40566;50.006;36.180;2023-05-31T17:01:44;99590.44;;;20.86;41.51
54666;BME280;40566;50.006;36.180;2023-05-31T17:06:45;99595.50;;;20.76;41.55
54666;BME280;40566;50.006;36.180;2023-05-31T17:11:46;99599.03;;;20.64;41.87
54666;BME280;40566;50.006;36.180;2023-05-31T17:16:46;99596.19;;;20.54;42.07
54666;BME280;40566;50.006;36.180;2023-05-31T17:21:47;99605.91;;;20.40;42.36
54666;BME280;40566;50.006;36.180;2023-05-31T17:26:48;99613.69;;;20.29;42.43
54666;BME280;40566;50.006;36.180;2023-05-31T17:31:52;99617.09;;;20.18;43.00
54666;BME280;40566;50.006;36.180;2023-05-31T17:36:52;99626.75;;;20.05;42.99
54666;BME280;40566;50.006;36.180;2023-05-31T17:41:54;99632.84;;;19.93;43.24
54666;BME280;40566;50.006;36.180;2023-05-31T17:46:55;99636.28;;;19.80;43.92
54666;BME280;40566;50.006;36.180;2023-05-31T17:51:56;99645.72;;;19.70;43.98
54666;BME280;40566;50.006;36.180;2023-05-31T17:56:59;99636.03;;;19.58;44.35
54666;BME280;40566;50.006;36.180;2023-05-31T18:01:59;99651.13;;;19.41;44.91
54666;BME280;40566;50.006;36.180;2023-05-31T18:07:00;99651.72;;;19.32;45.02
54666;BME280;40566;50.006;36.180;2023-05-31T18:12:01;99659.16;;;19.26;45.40
54666;BME280;40566;50.006;36.180;2023-05-31T18:17:03;99664.16;;;19.16;45.56
54666;BME280;40566;50.006;36.180;2023-05-31T18:22:03;99663.44;;;18.99;45.73
54666;BME280;40566;50.006;36.180;2023-05-31T18:27:18;99658.81;;;18.90;45.83
54666;BME280;40566;50.006;36.180;2023-05-31T18:32:19;99681.38;;;18.78;45.78
54666;BME280;40566;50.006;36.180;2023-05-31T18:37:20;99683.63;;;18.70;45.43
54666;BME280;40566;50.006;36.180;2023-05-31T18:42:22;99684.09;;;18.62;45.45
54666;BME280;40566;50.006;36.180;2023-05-31T18:47:23;99681.22;;;18.53;45.23
54666;BME280;40566;50.006;36.180;2023-05-31T18:52:23;99692.06;;;18.47;45.38
54666;BME280;40566;50.006;36.180;2023-05-31T18:57:25;99682.97;;;18.38;45.17
54666;BME280;40566;50.006;36.180;2023-05-31T19:02:26;99696.53;;;18.30;44.86
54666;BME280;40566;50.006;36.180;2023-05-31T19:07:27;99697.13;;;18.21;44.84
54666;BME280;40566;50.006;36.180;2023-05-31T19:12:28;99702.81;;;18.13;44.86
54666;BME280;40566;50.006;36.180;2023-05-31T19:17:28;99699.81;;;18.05;45.02
54666;BME280;40566;50.006;36.180;2023-05-31T19:22:46;99694.16;;;17.97;44.70
54666;BME280;40566;50.006;36.180;2023-05-31T19:27:50;99704.44;;;17.86;44.85
54666;BME280;40566;50.006;36.180;2023-05-31T19:32:51;99704.53;;;17.84;44.87
54666;BME280;40566;50.006;36.180;2023-05-31T19:37:52;99694.69;;;17.73;44.70
54666;BME280;40566;50.006;36.180;2023-05-31T19:42:52;99713.50;;;17.64;44.55
54666;BME280;40566;50.006;36.180;2023-05-31T19:47:54;99704.41;;;17.55;44.67
54666;BME280;40566;50.006;36.180;2023-05-31T19:52:55;99702.25;;;17.48;44.69
54666;BME280;40566;50.006;36.180;2023-05-31T19:57:56;99695.69;;;17.40;44.58
54666;BME280;40566;50.006;36.180;2023-05-31T20:02:56;99703.13;;;17.32;44.91
54666;BME280;40566;50.006;36.180;2023-05-31T20:07:57;99703.47;;;17.26;44.89
54666;BME280;40566;50.006;36.180;2023-05-31T20:12:57;99711.47;;;17.23;44.71
54666;BME280;40566;50.006;36.180;2023-05-31T20:17:58;99711.22;;;17.12;44.66
54666;BME280;40566;50.006;36.180;2023-05-31T20:22:58;99723.09;;;17.01;44.71
54666;BME280;40566;50.006;36.180;2023-05-31T20:28:03;99710.38;;;16.95;44.45
54666;BME280;40566;50.006;36.180;2023-05-31T20:33:04;99733.41;;;16.89;44.60
54666;BME280;40566;50.006;36.180;2023-05-31T20:38:05;99732.03;;;16.81;44.82
54666;BME280;40566;50.006;36.180;2023-05-31T20:43:05;99734.09;;;16.75;44.78
54666;BME280;40566;50.006;36.180;2023-05-31T20:48:06;99733.44;;;16.71;44.69
54666;BME280;40566;50.006;36.180;2023-05-31T20:53:06;99729.53;;;16.62;44.93
54666;BME280;40566;50.006;36.180;2023-05-31T20:58:07;99723.88;;;16.54;45.10
54666;BME280;40566;50.006;36.180;2023-05-31T21:03:07;99729.34;;;16.50;45.00
54666;BME280;40566;50.006;36.180;2023-05-31T21:08:08;99732.34;;;16.42;45.01
54666;BME280;40566;50.006;36.180;2023-05-31T21:13:09;99729.44;;;16.31;45.33
54666;BME280;40566;50.006;36.180;2023-05-31T21:18:09;99734.84;;;16.28;45.35
54666;BME280;40566;50.006;36.180;2023-05-31T21:23:10;99735.31;;;16.18;45.38
54666;BME280;40566;50.006;36.180;2023-05-31T21:28:10;99733.91;;;16.11;45.60
54666;BME280;40566;50.006;36.180;2023-05-31T21:33:11;99737.59;;;16.07;45.45
54666;BME280;40566;50.006;36.180;2023-05-31T21:38:12;99731.84;;;16.00;45.65
54666;BME280;40566;50.006;36.180;2023-05-31T21:43:12;99734.09;;;15.91;45.71
54666;BME280;40566;50.006;36.180;2023-05-31T21:48:13;99730.94;;;15.84;45.61
54666;BME280;40566;50.006;36.180;2023-05-31T21:53:13;99734.00;;;15.75;45.75
54666;BME280;40566;50.006;36.180;2023-05-31T21:58:14;99734.06;;;15.73;45.67
54666;BME280;40566;50.006;36.180;2023-05-31T22:03:15;99733.44;;;15.68;46.00
54666;BME280;40566;50.006;36.180;2023-05-31T22:08:15;99733.59;;;15.65;46.30
54666;BME280;40566;50.006;36.180;2023-05-31T22:13:16;99739.16;;;15.57;46.35
54666;BME280;40566;50.006;36.180;2023-05-31T22:18:18;99727.38;;;15.50;46.40
54666;BME280;40566;50.006;36.180;2023-05-31T22:23:21;99730.88;;;15.49;46.60
54666;BME280;40566;50.006;36.180;2023-05-31T22:28:22;99739.84;;;15.43;46.73
54666;BME280;40566;50.006;36.180;2023-05-31T22:33:23;99749.78;;;15.35;46.97
54666;BME280;40566;50.006;36.180;2023-05-31T22:38:23;99751.34;;;15.20;46.86
54666;BME280;40566;50.006;36.180;2023-05-31T22:43:24;99759.66;;;15.10;47.13
54666;BME280;40566;50.006;36.180;2023-05-31T22:48:25;99760.84;;;15.02;47.09
54666;BME280;40566;50.006;36.180;2023-05-31T22:53:28;99767.19;;;14.97;47.12
54666;BME280;40566;50.006;36.180;2023-05-31T22:58:29;99759.81;;;14.87;47.29
54666;BME280;40566;50.006;36.180;2023-05-31T23:03:29;99768.69;;;14.83;47.46
54666;BME280;40566;50.006;36.180;2023-05-31T23:08:30;99771.56;;;14.77;47.44
54666;BME280;40566;50.006;36.180;2023-05-31T23:13:32;99768.44;;;14.69;47.59
54666;BME280;40566;50.006;36.180;2023-05-31T23:18:36;99764.53;;;14.59;47.63
54666;BME280;40566;50.006;36.180;2023-05-31T23:23:36;99769.94;;;14.54;47.86
54666;BME280;40566;50.006;36.180;2023-05-31T23:28:37;99770.31;;;14.45;48.16
54666;BME280;40566;50.006;36.180;2023-05-31T23:33:37;99787.13;;;14.38;48.35
54666;BME280;40566;50.006;36.180;2023-05-31T23:38:41;99782.06;;;14.35;48.52
54666;BME280;40566;50.006;36.180;2023-05-31T23:43:41;99782.31;;;14.28;48.79
54666;BME280;40566;50.006;36.180;2023-05-31T23:48:42;99781.78;;;14.20;48.89
54666;BME280;40566;50.006;36.180;2023-05-31T23:53:43;99795.19;;;14.11;49.17
54666;BME280;40566;50.006;36.180;2023-05-31T23:58:43;99786.84;;;14.03;49.25
